Thaani — HBY4477 — position and weather

sailwx.info

Track history (hours):
 
Tides and Currents Weather Stations Pressure Air Temp Water Temp Dewpoint Dewpoint Depression Visibility Wind Speed Wind Dir Waves Ship Positions

Thaani

Last reported at 2015-Jul-06 07:20 UTC. Time now 2015-Jul-07 08:59 UTC.
Position N 43°38' W 005°44'.

Length 14 m.

Type: Pleasure craft. MMSI: 269102970.

Date/timePositionNaut miles runAvg speedWind from/ knotsBaromVisibWave heightAir tempDewpointWater temp
2015-Jul-06 07:20N 43°38' W 005°44'5 0.2
2015-Jul-05 06:21N 43°33' W 005°40'4 4.7
2015-Jul-05 05:33N 43°35' W 005°36'5 4.2
2015-Jul-05 04:23N 43°36' W 005°29'  
2015-Jun-30 05:18N 43°24' W 001°58'5 6.7
2015-Jun-30 04:32N 43°29' W 001°55'6 5.8
2015-Jun-30 03:33N 43°34' W 001°52'5 4.9
2015-Jun-30 02:33N 43°39' W 001°50'4 4.4
2015-Jun-30 01:33N 43°43' W 001°47'11 5.5
2015-Jun-29 23:33N 43°53' W 001°41'6 5.6
2015-Jun-29 22:33N 43°58' W 001°39'6 4.9
2015-Jun-29 21:23N 44°04' W 001°36'4 4.7
2015-Jun-29 20:32N 44°07' W 001°34'5 4.7
2015-Jun-29 19:33N 44°12' W 001°31'6 6.0
2015-Jun-29 18:33N 44°17' W 001°28'7 6.6
2015-Jun-29 17:33N 44°23' W 001°24'7 6.7
2015-Jun-29 16:33N 44°29' W 001°21'5 5.4
2015-Jun-29 15:33N 44°34' W 001°18'6 6.0
2015-Jun-29 14:33N 44°39' W 001°13'3 2.9
2015-Jun-29 13:32N 44°40' W 001°09'0 0.0
2015-Jun-28 11:31N 44°40' W 001°09'0 0.0
2015-Jun-27 22:30N 44°40' W 001°09'0 0.0
2015-Jun-27 21:33N 44°40' W 001°09'4 3.9
2015-Jun-27 20:33N 44°39' W 001°14'5 4.5
2015-Jun-27 19:33N 44°35' W 001°18'6 6.4
2015-Jun-27 18:33N 44°42' W 001°19'7 6.5
2015-Jun-27 17:33N 44°48' W 001°18'74 6.1
2015-Jun-27 05:32N 46°01' W 001°30'6 6.5
2015-Jun-27 04:33N 46°05' W 001°23'7 6.7
2015-Jun-27 03:33N 46°07' W 001°14'  
Track history (hours):
 
Tides and Currents Weather Stations Pressure Air Temp Water Temp Dewpoint Dewpoint Depression Visibility Wind Speed Wind Dir Waves Ship Positions

Thaani

Last reported at 2015-Jul-06 07:20 UTC. Time now 2015-Jul-07 08:59 UTC.
Position N 43°38' W 005°44'.

Length 14 m.

Type: Pleasure craft. MMSI: 269102970.

Date/timePositionNaut miles runAvg speedWind from/ knotsBaromVisibWave heightAir tempDewpointWater temp
2015-Jul-06 07:20N 43°38' W 005°44'5 0.2
2015-Jul-05 06:21N 43°33' W 005°40'4 4.7
2015-Jul-05 05:33N 43°35' W 005°36'5 4.2
2015-Jul-05 04:23N 43°36' W 005°29'  
2015-Jun-30 05:18N 43°24' W 001°58'5 6.7
2015-Jun-30 04:32N 43°29' W 001°55'6 5.8
2015-Jun-30 03:33N 43°34' W 001°52'5 4.9
2015-Jun-30 02:33N 43°39' W 001°50'4 4.4
2015-Jun-30 01:33N 43°43' W 001°47'11 5.5
2015-Jun-29 23:33N 43°53' W 001°41'6 5.6
2015-Jun-29 22:33N 43°58' W 001°39'6 4.9
2015-Jun-29 21:23N 44°04' W 001°36'4 4.7
2015-Jun-29 20:32N 44°07' W 001°34'5 4.7
2015-Jun-29 19:33N 44°12' W 001°31'6 6.0
2015-Jun-29 18:33N 44°17' W 001°28'7 6.6
2015-Jun-29 17:33N 44°23' W 001°24'7 6.7
2015-Jun-29 16:33N 44°29' W 001°21'5 5.4
2015-Jun-29 15:33N 44°34' W 001°18'6 6.0
2015-Jun-29 14:33N 44°39' W 001°13'3 2.9
2015-Jun-29 13:32N 44°40' W 001°09'0 0.0
2015-Jun-28 11:31N 44°40' W 001°09'0 0.0
2015-Jun-27 22:30N 44°40' W 001°09'0 0.0
2015-Jun-27 21:33N 44°40' W 001°09'4 3.9
2015-Jun-27 20:33N 44°39' W 001°14'5 4.5
2015-Jun-27 19:33N 44°35' W 001°18'6 6.4
2015-Jun-27 18:33N 44°42' W 001°19'7 6.5
2015-Jun-27 17:33N 44°48' W 001°18'74 6.1
2015-Jun-27 05:32N 46°01' W 001°30'6 6.5
2015-Jun-27 04:33N 46°05' W 001°23'7 6.7
2015-Jun-27 03:33N 46°07' W 001°14'  

Dump ship's entire track history